Terminal Aerodrome Forecast
Issued by NWS

Home | Current Version | Previous Version | Graphics & Text | Print | Product List | Glossary On
Versions: 1 2 3 4 5 6 7 8 9 10 11 12 13 14 15 16 17 18 19 20 21 22 23 24 25 26 27 28
000
FTUS43 KLOT 201130
TAFORD
TAF
KORD 201130Z 2012/2118 18005KT P6SM SCT250
     FM201500 20007KT P6SM FEW050 BKN250
     FM201900 20009KT P6SM FEW050 BKN250
     FM210100 18005KT P6SM BKN150
     FM211500 20007KT P6SM VCSH SCT060 OVC100=

USA.gov is the U.S. government's official web portal to all federal, state and local government web resources and services.